Terminal Aerodrome Forecast
Issued by NWS Paducah, KY

Home | Current Version | Previous Version | Text Only | Print | Product List | Glossary On
Versions: 1 2 3 4 5 6 7 8 9 10 11 12 13 14
000
FTUS43 KPAH 200520
TAFPAH
TAF
KPAH 200520Z 2006/2106 21010KT P6SM FEW035 WS020/23045KT
      TEMPO 2008/2012 BKN035
     FM201200 21010KT P6SM OVC030
     FM202100 19007KT P6SM OVC015=

USA.gov is the U.S. government's official web portal to all federal, state and local government web resources and services.